Time;durP1;ratioP1;P1;durP2;ratioP2;P2;SDS_P1;SDS_P2;PMS_P1;PMS_P2;Temp;Humidity;BMP_temperature;BMP_pressure;BME280_temperature;BME280_humidity;BME280_pressure;Samples;Min_cycle;Max_cycle;Signal;HPM_P1;HPM_P2
2022/01/10 00:00:40;;;;;;;;;;;;;;;3.13;59.35;99032.41;4444256;32;20609;-91
2022/01/10 00:03:07;;;;;;;;;;;;;;;3.07;59.35;99033.31;4444351;32;20004;-93
2022/01/10 00:05:32;;;;;;;;;;;;;;;3.16;59.35;99034.94;4443563;32;19988;-94
2022/01/10 00:07:58;;;;;;;;;;;;;;;3.07;59.34;99029.03;4456019;32;19988;-92
2022/01/10 00:10:23;;;;;;;;;;;;;;;3.24;59.36;99033.94;4456036;32;20594;-91
2022/01/10 00:12:49;;;;;;;;;;;;;;;3.09;59.34;99031.59;4443986;32;22998;-94
2022/01/10 00:15:16;;;;;;;;;;;;;;;3.27;59.36;99036.47;4444287;32;19976;-93
2022/01/10 00:17:44;;;;;;;;;;;;;;;3.16;59.36;99035.78;4444913;32;19944;-93
2022/01/10 00:20:11;;;;;;;;;;;;;;;3.12;59.35;99031.56;4444934;32;20001;-94
2022/01/10 00:22:36;;;;;;;;;;;;;;;3.23;59.35;99031.41;4444487;32;20044;-92
2022/01/10 00:25:02;;;;;;;;;;;;;;;3.20;59.35;99027.16;4444224;32;19992;-92
2022/01/10 00:27:28;;;;;;;;;;;;;;;3.13;59.35;99034.97;4444758;32;20005;-92
2022/01/10 00:29:53;;;;;;;;;;;;;;;3.10;59.36;99037.59;4457319;32;20325;-94
2022/01/10 00:32:18;;;;;;;;;;;;;;;3.14;59.35;99040.09;4444677;32;20049;-92
2022/01/10 00:34:44;;;;;;;;;;;;;;;3.09;59.34;99039.31;4458053;32;20033;-93
2022/01/10 00:37:09;;;;;;;;;;;;;;;3.16;59.36;99043.50;4445305;32;20073;-94
2022/01/10 00:39:34;;;;;;;;;;;;;;;3.29;59.35;99039.03;4445394;32;19996;-93
2022/01/10 00:41:59;;;;;;;;;;;;;;;3.05;59.35;99043.63;4445910;32;20253;-93
2022/01/10 00:44:27;;;;;;;;;;;;;;;2.88;59.34;99042.16;4445175;32;19992;-94
2022/01/10 00:46:52;;;;;;;;;;;;;;;3.22;59.35;99042.56;4445125;32;20027;-94
2022/01/10 00:49:17;;;;;;;;;;;;;;;2.99;59.34;99045.44;4445649;32;20329;-94
2022/01/10 00:51:43;;;;;;;;;;;;;;;3.00;59.34;99047.13;4445439;32;20226;-94
2022/01/10 00:54:08;;;;;;;;;;;;;;;3.01;59.34;99051.41;4444958;32;21276;-95
2022/01/10 00:56:33;;;;;;;;;;;;;;;2.77;59.33;99044.84;4444975;32;26828;-94
2022/01/10 00:58:58;;;;;;;;;;;;;;;2.89;59.34;99044.72;4458314;32;20028;-94
2022/01/10 01:01:24;;;;;;;;;;;;;;;2.85;59.33;99048.19;4444936;32;20085;-93
2022/01/10 01:03:49;;;;;;;;;;;;;;;2.80;59.33;99055.09;4445125;32;29789;-94
2022/01/10 01:06:15;;;;;;;;;;;;;;;2.83;59.34;99054.19;4444369;32;30305;-95
2022/01/10 01:08:41;;;;;;;;;;;;;;;2.80;59.34;99055.09;4445322;32;20029;-93
2022/01/10 01:13:50;;;;;;;;;;;;;;;2.88;59.34;99057.59;4457224;32;20284;-93
2022/01/10 01:16:19;;;;;;;;;;;;;;;2.87;59.33;99056.72;4446569;32;19985;-94
2022/01/10 01:24:04;;;;;;;;;;;;;;;2.75;59.33;99056.87;4459969;32;20522;-93
2022/01/10 01:26:30;;;;;;;;;;;;;;;2.88;59.34;99055.84;4458008;32;20032;-94
2022/01/10 01:28:55;;;;;;;;;;;;;;;2.93;59.33;99058.38;4444724;32;19989;-93
2022/01/10 01:31:20;;;;;;;;;;;;;;;3.07;59.35;99057.31;4444420;32;21492;-93
2022/01/10 01:33:45;;;;;;;;;;;;;;;2.81;59.34;99061.06;4445283;32;20004;-93
2022/01/10 01:36:11;;;;;;;;;;;;;;;2.82;59.34;99066.19;4444787;32;20289;-90
2022/01/10 01:38:36;;;;;;;;;;;;;;;2.94;59.35;99060.91;4443278;32;20031;-91
2022/01/10 01:41:35;;;;;;;;;;;;;;;2.82;59.34;99068.75;4442757;32;20002;-90
2022/01/10 01:44:00;;;;;;;;;;;;;;;2.97;59.35;99067.75;4446345;32;20334;-90
2022/01/10 01:46:25;;;;;;;;;;;;;;;2.90;59.34;99073.84;4455281;32;19985;-90
2022/01/10 01:48:51;;;;;;;;;;;;;;;2.88;59.34;99073.84;4442332;32;19997;-91
2022/01/10 01:51:16;;;;;;;;;;;;;;;2.91;59.34;99072.97;4456491;32;19989;-92
2022/01/10 01:53:42;;;;;;;;;;;;;;;2.75;59.33;99077.41;4456130;32;22055;-91
2022/01/10 01:56:08;;;;;;;;;;;;;;;2.88;59.34;99070.44;4455878;32;19980;-90
2022/01/10 01:58:33;;;;;;;;;;;;;;;2.94;59.34;99072.91;4443825;32;20038;-93
2022/01/10 02:00:59;;;;;;;;;;;;;;;2.91;59.34;99073.81;4444050;32;20032;-91
2022/01/10 02:03:24;;;;;;;;;;;;;;;3.01;59.34;99069.41;4443852;32;19972;-90
2022/01/10 02:05:49;;;;;;;;;;;;;;;2.96;59.35;99069.47;4443695;32;19998;-92
2022/01/10 02:08:14;;;;;;;;;;;;;;;2.97;59.34;99075.44;4443331;32;19993;-92
2022/01/10 02:10:40;;;;;;;;;;;;;;;3.08;59.34;99069.31;4443724;32;19993;-92
2022/01/10 02:13:05;;;;;;;;;;;;;;;3.01;59.34;99070.25;4443731;32;19984;-93
2022/01/10 02:15:42;;;;;;;;;;;;;;;3.01;59.34;99066.81;4443141;32;24406;-92
2022/01/10 02:18:08;;;;;;;;;;;;;;;3.04;59.35;99071.94;4445276;32;20643;-93
2022/01/10 02:20:33;;;;;;;;;;;;;;;3.03;59.34;99063.37;4443721;32;20005;-93
2022/01/10 02:22:58;;;;;;;;;;;;;;;3.11;59.35;99067.56;4456685;32;20363;-92
2022/01/10 02:25:24;;;;;;;;;;;;;;;2.97;59.34;99065.16;4443645;32;20279;-93
2022/01/10 02:27:49;;;;;;;;;;;;;;;2.92;59.33;99072.09;4443579;32;20377;-92
2022/01/10 02:30:15;;;;;;;;;;;;;;;3.04;59.35;99071.94;4443299;32;20358;-92
2022/01/10 02:32:40;;;;;;;;;;;;;;;3.19;59.35;99070.87;4443509;32;20306;-92
2022/01/10 02:35:07;;;;;;;;;;;;;;;3.15;59.35;99062.38;4443332;32;19981;-91
2022/01/10 02:37:33;;;;;;;;;;;;;;;2.97;59.34;99068.59;4443784;32;20050;-91
2022/01/10 02:40:01;;;;;;;;;;;;;;;2.86;59.33;99067.03;4447115;32;19997;-91
2022/01/10 02:42:27;;;;;;;;;;;;;;;2.99;59.34;99073.72;4447443;32;20032;-89
2022/01/10 02:44:52;;;;;;;;;;;;;;;2.91;59.33;99068.66;4459532;32;21501;-90
2022/01/10 02:47:17;;;;;;;;;;;;;;;2.87;59.33;99073.88;4459297;32;20038;-89
2022/01/10 02:49:42;;;;;;;;;;;;;;;2.87;59.33;99072.16;4445981;32;22491;-90
2022/01/10 02:52:08;;;;;;;;;;;;;;;2.91;59.33;99063.53;4446453;32;19996;-89
2022/01/10 02:54:33;;;;;;;;;;;;;;;2.93;59.34;99071.22;4446068;32;19977;-89
2022/01/10 02:56:58;;;;;;;;;;;;;;;2.94;59.33;99067.78;4445657;32;24048;-88
2022/01/10 02:59:23;;;;;;;;;;;;;;;2.99;59.34;99068.56;4459038;32;19996;-91
2022/01/10 03:01:49;;;;;;;;;;;;;;;3.01;59.34;99077.97;4446318;32;20024;-89
2022/01/10 03:04:15;;;;;;;;;;;;;;;3.08;59.34;99082.19;4458841;32;19987;-89
2022/01/10 03:06:40;;;;;;;;;;;;;;;3.08;59.35;99077.03;4458898;32;20084;-90
2022/01/10 03:09:06;;;;;;;;;;;;;;;3.12;59.35;99085.56;4445907;32;20008;-91
2022/01/10 03:11:34;;;;;;;;;;;;;;;3.17;59.34;99076.06;4459541;32;20276;-91
2022/01/10 03:14:00;;;;;;;;;;;;;;;3.15;59.35;99082.94;4446296;32;20044;-89
2022/01/10 03:16:25;;;;;;;;;;;;;;;3.07;59.35;99090.72;4458834;32;20008;-89
2022/01/10 03:18:50;;;;;;;;;;;;;;;3.03;59.35;99093.37;4445713;32;20417;-88
2022/01/10 03:21:19;;;;;;;;;;;;;;;3.03;59.35;99095.94;4445562;32;20004;-90
2022/01/10 03:23:44;;;;;;;;;;;;;;;3.09;59.36;99093.31;4445849;32;20325;-90
2022/01/10 03:26:09;;;;;;;;;;;;;;;3.12;59.35;99095.00;4445823;32;20023;-89
2022/01/10 03:28:35;;;;;;;;;;;;;;;3.09;59.36;99098.47;4445592;32;20603;-90
2022/01/10 03:31:00;;;;;;;;;;;;;;;3.02;59.35;99097.66;4445373;32;25180;-88
2022/01/10 03:33:25;;;;;;;;;;;;;;;3.13;59.35;99100.13;4445729;32;20375;-89
2022/01/10 03:35:50;;;;;;;;;;;;;;;3.11;59.35;99096.72;4445121;32;27311;-89
2022/01/10 03:38:15;;;;;;;;;;;;;;;3.15;59.35;99100.94;4458410;32;20285;-89
2022/01/10 03:40:41;;;;;;;;;;;;;;;3.23;59.35;99104.25;4445480;32;20000;-89
2022/01/10 03:43:06;;;;;;;;;;;;;;;3.23;59.35;99108.56;4457980;32;24648;-88
2022/01/10 03:45:32;;;;;;;;;;;;;;;3.28;59.36;99111.91;4445438;32;19997;-89
2022/01/10 03:47:57;;;;;;;;;;;;;;;3.35;59.37;99110.97;4446744;32;20004;-92
2022/01/10 03:50:22;;;;;;;;;;;;;;;3.25;59.36;99111.94;4457381;32;20274;-92
2022/01/10 03:52:48;;;;;;;;;;;;;;;3.34;59.37;99123.00;4443847;32;26015;-92
2022/01/10 03:55:13;;;;;;;;;;;;;;;3.46;59.37;99116.81;4444520;32;20035;-92
2022/01/10 03:57:38;;;;;;;;;;;;;;;3.42;59.37;99119.47;4444259;32;20311;-91
2022/01/10 04:00:04;;;;;;;;;;;;;;;3.44;59.36;99121.12;4444781;32;20270;-91
2022/01/10 04:02:31;;;;;;;;;;;;;;;3.34;59.36;99125.56;4443755;32;20023;-92
2022/01/10 04:04:56;;;;;;;;;;;;;;;3.53;59.38;99135.59;4457415;32;20011;-92
2022/01/10 04:07:22;;;;;;;;;;;;;;;3.50;59.37;99130.50;4444252;32;19985;-91
2022/01/10 04:09:47;;;;;;;;;;;;;;;3.37;59.36;99130.66;4444759;32;19985;-93
2022/01/10 04:12:12;;;;;;;;;;;;;;;3.38;59.36;99137.50;4444862;32;20219;-93
2022/01/10 04:14:38;;;;;;;;;;;;;;;3.33;59.37;99141.88;4444322;32;20036;-92
2022/01/10 04:17:03;;;;;;;;;;;;;;;3.34;59.37;99146.13;4444455;32;19992;-92
2022/01/10 04:19:28;;;;;;;;;;;;;;;3.51;59.37;99145.06;4444868;32;19993;-91
2022/01/10 04:21:53;;;;;;;;;;;;;;;3.36;59.36;99148.69;4444228;32;20261;-92
2022/01/10 04:24:19;;;;;;;;;;;;;;;3.34;59.37;99150.44;4444353;32;21944;-93
2022/01/10 04:26:44;;;;;;;;;;;;;;;3.51;59.37;99147.63;4444760;32;19984;-91
2022/01/10 04:29:09;;;;;;;;;;;;;;;3.53;59.38;99151.88;4443961;32;20389;-91
2022/01/10 04:31:34;;;;;;;;;;;;;;;3.37;59.36;99150.41;4442539;32;20036;-90
2022/01/10 04:33:59;;;;;;;;;;;;;;;3.43;59.37;99152.88;4442501;32;25091;-90
2022/01/10 04:36:25;;;;;;;;;;;;;;;3.33;59.37;99153.88;4443458;32;20050;-92
2022/01/10 04:38:50;;;;;;;;;;;;;;;3.29;59.36;99158.19;4445801;32;20026;-93
2022/01/10 04:41:15;;;;;;;;;;;;;;;3.38;59.36;99163.22;4445884;32;19997;-95
2022/01/10 04:43:41;;;;;;;;;;;;;;;3.30;59.36;99159.88;4459017;32;19992;-94
2022/01/10 04:46:06;;;;;;;;;;;;;;;3.44;59.36;99158.88;4445351;32;19992;-95
2022/01/10 04:48:31;;;;;;;;;;;;;;;3.36;59.36;99162.41;4445515;32;20008;-94
2022/01/10 04:51:13;;;;;;;;;;;;;;;3.33;59.37;99162.44;4445539;32;19985;-92
2022/01/10 04:53:39;;;;;;;;;;;;;;;3.39;59.37;99164.94;4446710;32;20016;-93
2022/01/10 04:56:05;;;;;;;;;;;;;;;3.40;59.37;99168.34;4445339;32;19965;-93
2022/01/10 04:58:30;;;;;;;;;;;;;;;3.41;59.37;99177.78;4458024;32;19973;-93
2022/01/10 05:00:55;;;;;;;;;;;;;;;3.38;59.36;99178.66;4443614;32;19996;-93
2022/01/10 05:03:21;;;;;;;;;;;;;;;3.30;59.36;99175.31;4445087;32;20005;-92
2022/01/10 05:05:48;;;;;;;;;;;;;;;3.41;59.37;99174.34;4444539;32;19992;-92
2022/01/10 05:08:13;;;;;;;;;;;;;;;3.46;59.37;99176.00;4443915;32;19981;-91
2022/01/10 05:10:39;;;;;;;;;;;;;;;3.46;59.36;99185.44;4443873;32;20011;-92
2022/01/10 05:13:04;;;;;;;;;;;;;;;3.37;59.36;99187.25;4444417;32;20008;-92
2022/01/10 05:15:29;;;;;;;;;;;;;;;3.45;59.37;99183.72;4444415;32;20008;-92
2022/01/10 05:17:55;;;;;;;;;;;;;;;3.60;59.37;99183.56;4444377;32;20016;-92
2022/01/10 05:20:20;;;;;;;;;;;;;;;3.41;59.37;99189.78;4444067;32;19996;-91
2022/01/10 05:22:45;;;;;;;;;;;;;;;3.35;59.37;99195.88;4442394;32;19992;-91
2022/01/10 05:25:10;;;;;;;;;;;;;;;3.38;59.36;99198.41;4455969;32;27059;-90
2022/01/10 05:27:35;;;;;;;;;;;;;;;3.18;59.36;99192.63;4443580;32;19980;-90
2022/01/10 05:30:01;;;;;;;;;;;;;;;3.24;59.35;99197.69;4442703;32;24257;-90
2022/01/10 05:32:26;;;;;;;;;;;;;;;3.36;59.36;99200.13;4442565;32;20265;-89
2022/01/10 05:34:51;;;;;;;;;;;;;;;3.32;59.37;99204.47;4442202;32;19981;-89
2022/01/10 05:37:16;;;;;;;;;;;;;;;3.21;59.35;99197.72;4441689;32;25629;-89
2022/01/10 05:39:42;;;;;;;;;;;;;;;3.32;59.37;99201.91;4454850;32;24476;-90
2022/01/10 05:42:07;;;;;;;;;;;;;;;3.31;59.37;99205.34;4441432;32;32072;-90
2022/01/10 05:44:32;;;;;;;;;;;;;;;3.29;59.35;99203.63;4454551;32;25558;-89
2022/01/10 05:46:59;;;;;;;;;;;;;;;3.34;59.37;99207.03;4454552;32;22979;-89
2022/01/10 05:49:29;;;;;;;;;;;;;;;3.42;59.37;99205.19;4441931;32;19978;-89
2022/01/10 05:51:54;;;;;;;;;;;;;;;3.42;59.37;99212.94;4455010;32;19988;-89
2022/01/10 05:54:19;;;;;;;;;;;;;;;3.41;59.37;99215.50;4441218;32;21108;-88
2022/01/10 05:56:45;;;;;;;;;;;;;;;3.33;59.37;99208.75;4454588;32;19985;-88
2022/01/10 05:59:10;;;;;;;;;;;;;;;3.36;59.36;99211.28;4441130;32;24164;-89
2022/01/10 06:01:35;;;;;;;;;;;;;;;3.23;59.35;99214.00;4454250;32;20008;-89
2022/01/10 06:04:00;;;;;;;;;;;;;;;3.27;59.36;99210.50;4441215;32;20318;-87
2022/01/10 06:06:25;;;;;;;;;;;;;;;3.18;59.36;99220.91;4453860;32;23275;-88
2022/01/10 06:08:51;;;;;;;;;;;;;;;3.23;59.35;99217.41;4454338;32;20428;-87
2022/01/10 06:11:16;;;;;;;;;;;;;;;3.24;59.35;99213.12;4441531;32;19992;-90
2022/01/10 06:13:42;;;;;;;;;;;;;;;3.36;59.36;99224.16;4441107;32;20053;-90
2022/01/10 06:16:07;;;;;;;;;;;;;;;3.36;59.36;99228.44;4442169;32;20593;-90
2022/01/10 06:18:32;;;;;;;;;;;;;;;3.27;59.36;99221.66;4442270;32;20057;-91
2022/01/10 06:20:57;;;;;;;;;;;;;;;3.29;59.35;99225.06;4441958;32;20013;-90
2022/01/10 06:23:23;;;;;;;;;;;;;;;3.39;59.37;99225.81;4454206;32;19972;-90
2022/01/10 06:25:48;;;;;;;;;;;;;;;3.46;59.38;99227.44;4441644;32;19985;-89
2022/01/10 06:28:14;;;;;;;;;;;;;;;3.30;59.35;99226.75;4441468;32;20340;-89
2022/01/10 06:30:40;;;;;;;;;;;;;;;3.17;59.34;99243.22;4441401;32;20049;-88
2022/01/10 06:33:05;;;;;;;;;;;;;;;3.27;59.36;99237.09;4454129;32;20004;-89
2022/01/10 06:35:30;;;;;;;;;;;;;;;3.27;59.36;99241.38;4440702;32;21026;-89
2022/01/10 06:37:55;;;;;;;;;;;;;;;3.30;59.35;99243.91;4440520;32;26567;-89
2022/01/10 06:40:21;;;;;;;;;;;;;;;3.22;59.35;99251.72;4468272;32;20011;-88
2022/01/10 06:42:46;;;;;;;;;;;;;;;3.21;59.36;99254.31;4441034;32;20371;-89
2022/01/10 06:45:11;;;;;;;;;;;;;;;3.21;59.36;99252.59;4441009;32;19992;-88
2022/01/10 06:47:37;;;;;;;;;;;;;;;3.20;59.35;99257.75;4454112;32;19981;-90
2022/01/10 06:50:02;;;;;;;;;;;;;;;3.04;59.35;99254.47;4441152;32;20008;-89
2022/01/10 06:52:27;;;;;;;;;;;;;;;3.16;59.34;99262.09;4441117;32;19993;-89
2022/01/10 06:54:53;;;;;;;;;;;;;;;3.06;59.35;99260.44;4441452;32;20642;-90
2022/01/10 06:57:18;;;;;;;;;;;;;;;3.13;59.35;99267.25;4440585;32;24700;-89
2022/01/10 06:59:43;;;;;;;;;;;;;;;2.91;59.34;99269.16;4454156;32;20004;-89
2022/01/10 07:02:08;;;;;;;;;;;;;;;3.23;59.35;99276.56;4440281;32;23566;-89
2022/01/10 07:04:34;;;;;;;;;;;;;;;3.14;59.35;99275.81;4453761;32;22857;-89
2022/01/10 07:06:59;;;;;;;;;;;;;;;3.04;59.34;99281.03;4468268;32;20391;-90
2022/01/10 07:09:24;;;;;;;;;;;;;;;3.02;59.35;99287.91;4454052;32;20285;-89
2022/01/10 07:11:49;;;;;;;;;;;;;;;3.24;59.36;99278.28;4454277;32;20395;-89
2022/01/10 07:14:16;;;;;;;;;;;;;;;3.15;59.35;99290.38;4454075;32;20044;-90
2022/01/10 07:16:41;;;;;;;;;;;;;;;3.16;59.36;99285.22;4454163;32;20060;-90
2022/01/10 07:19:07;;;;;;;;;;;;;;;3.26;59.36;99283.41;4454134;32;19992;-90
2022/01/10 07:21:32;;;;;;;;;;;;;;;3.41;59.37;99284.97;4453929;32;19988;-90
2022/01/10 07:23:57;;;;;;;;;;;;;;;3.39;59.37;99290.13;4468185;32;20015;-89
2022/01/10 07:26:23;;;;;;;;;;;;;;;3.30;59.35;99298.78;4455846;32;20019;-89
2022/01/10 07:28:48;;;;;;;;;;;;;;;3.38;59.36;99306.44;4456057;32;20003;-89
2022/01/10 07:31:13;;;;;;;;;;;;;;;3.53;59.38;99310.56;4456157;32;20307;-89
2022/01/10 07:33:38;;;;;;;;;;;;;;;3.47;59.38;99319.19;4442962;32;20160;-89
2022/01/10 07:36:04;;;;;;;;;;;;;;;3.62;59.38;99324.19;4443314;32;19965;-91
2022/01/10 07:38:35;;;;;;;;;;;;;;;3.83;59.40;99319.69;4444028;32;20327;-92
2022/01/10 07:41:00;;;;;;;;;;;;;;;3.72;59.38;99322.37;4458303;32;20006;-92
2022/01/10 07:43:25;;;;;;;;;;;;;;;3.82;59.38;99323.97;4443301;32;19981;-89
2022/01/10 07:45:51;;;;;;;;;;;;;;;4.01;59.40;99320.28;4443445;32;19981;-90
2022/01/10 07:48:17;;;;;;;;;;;;;;;4.02;59.40;99321.13;4443243;32;20050;-90
2022/01/10 07:50:42;;;;;;;;;;;;;;;4.03;59.40;99320.31;4444060;32;20060;-91
2022/01/10 07:53:10;;;;;;;;;;;;;;;4.11;59.40;99326.19;4443543;32;20030;-92
2022/01/10 07:55:36;;;;;;;;;;;;;;;4.08;59.41;99327.97;4444546;32;20046;-91
2022/01/10 07:58:01;;;;;;;;;;;;;;;4.18;59.41;99329.53;4443910;32;20016;-92
2022/01/10 08:00:26;;;;;;;;;;;;;;;4.42;59.42;99320.63;4443506;32;20007;-91
2022/01/10 08:02:51;;;;;;;;;;;;;;;4.42;59.42;99320.63;4442931;32;20003;-91
2022/01/10 08:05:17;;;;;;;;;;;;;;;4.45;59.43;99326.59;4442944;32;19981;-89
2022/01/10 08:07:42;;;;;;;;;;;;;;;4.42;59.42;99330.94;4443013;32;20026;-90
2022/01/10 08:10:07;;;;;;;;;;;;;;;4.69;59.44;99329.69;4443118;32;20405;-91
2022/01/10 08:12:33;;;;;;;;;;;;;;;4.97;59.45;99338.72;4443146;32;19996;-91
2022/01/10 08:15:04;;;;;;;;;;;;;;;4.91;59.45;99336.22;4442825;32;20012;-88
2022/01/10 08:17:29;;;;;;;;;;;;;;;5.00;59.45;99330.94;4443225;32;20000;-91
2022/01/10 08:19:54;;;;;;;;;;;;;;;4.92;59.45;99333.59;4443285;32;19997;-91
2022/01/10 08:22:19;;;;;;;;;;;;;;;4.75;59.44;99334.75;4442988;32;20311;-90
2022/01/10 08:24:45;;;;;;;;;;;;;;;4.83;59.44;99338.06;4442529;32;20010;-91
2022/01/10 08:27:10;;;;;;;;;;;;;;;4.97;59.45;99337.84;4442495;32;19989;-90
2022/01/10 08:29:36;;;;;;;;;;;;;;;5.07;59.46;99334.25;4455770;32;20016;-91
2022/01/10 08:32:01;;;;;;;;;;;;;;;5.07;59.46;99340.25;4456281;32;20309;-90
2022/01/10 08:34:26;;;;;;;;;;;;;;;5.08;59.46;99344.53;4443211;32;20007;-92
2022/01/10 08:36:52;;;;;;;;;;;;;;;5.16;59.47;99340.09;4443108;32;20069;-91
2022/01/10 08:39:17;;;;;;;;;;;;;;;5.19;59.47;99350.38;4442989;32;20016;-89
2022/01/10 08:41:42;;;;;;;;;;;;;;;5.13;59.46;99347.03;4470076;32;19996;-92
2022/01/10 08:44:07;;;;;;;;;;;;;;;5.26;59.47;99351.13;4442746;32;20261;-90
2022/01/10 08:46:33;;;;;;;;;;;;;;;5.22;59.46;99349.50;4443483;32;20000;-91
2022/01/10 08:48:58;;;;;;;;;;;;;;;5.32;59.48;99348.44;4455642;32;20002;-90
2022/01/10 08:51:24;;;;;;;;;;;;;;;5.25;59.47;99354.59;4442760;32;20281;-90
2022/01/10 08:53:49;;;;;;;;;;;;;;;5.21;59.46;99361.53;4455676;32;19990;-90
2022/01/10 08:56:15;;;;;;;;;;;;;;;5.29;59.47;99363.97;4443404;32;19988;-91
2022/01/10 08:58:40;;;;;;;;;;;;;;;5.37;59.47;99364.69;4443133;32;20044;-91
2022/01/10 09:01:05;;;;;;;;;;;;;;;5.35;59.47;99363.00;4442691;32;20023;-91
2022/01/10 09:03:32;;;;;;;;;;;;;;;5.27;59.48;99365.75;4442312;32;20325;-90
2022/01/10 09:05:57;;;;;;;;;;;;;;;5.10;59.47;99368.59;4442926;32;20004;-91
2022/01/10 09:08:23;;;;;;;;;;;;;;;5.13;59.46;99373.69;4442326;32;20008;-92
2022/01/10 09:10:48;;;;;;;;;;;;;;;5.33;59.48;99381.09;4455616;32;20045;-90
2022/01/10 09:13:13;;;;;;;;;;;;;;;5.37;59.47;99376.75;4455236;32;20034;-88
2022/01/10 09:15:38;;;;;;;;;;;;;;;5.16;59.47;99383.97;4454909;32;19977;-89
2022/01/10 09:18:04;;;;;;;;;;;;;;;5.53;59.49;99373.03;4455060;32;20004;-90
2022/01/10 09:20:29;;;;;;;;;;;;;;;5.46;59.48;99376.59;4442103;32;19993;-89
2022/01/10 09:22:54;;;;;;;;;;;;;;;5.34;59.48;99382.81;4441755;32;19972;-89
2022/01/10 09:25:20;;;;;;;;;;;;;;;5.70;59.50;99385.66;4441678;32;20381;-89
2022/01/10 09:27:45;;;;;;;;;;;;;;;5.79;59.50;99386.31;4441452;32;20005;-89
2022/01/10 09:30:11;;;;;;;;;;;;;;;5.58;59.49;99383.28;4454552;32;19999;-89
2022/01/10 09:32:36;;;;;;;;;;;;;;;5.72;59.49;99384.75;4454775;32;19980;-91
2022/01/10 09:35:01;;;;;;;;;;;;;;;5.78;59.51;99394.09;4442109;32;20070;-89
2022/01/10 09:37:27;;;;;;;;;;;;;;;5.92;59.51;99380.97;4455495;32;20029;-89
2022/01/10 09:39:52;;;;;;;;;;;;;;;6.04;59.52;99372.97;4442881;32;19999;-90
2022/01/10 09:42:18;;;;;;;;;;;;;;;6.05;59.51;99377.25;4442536;32;19985;-89
2022/01/10 09:44:44;;;;;;;;;;;;;;;5.93;59.51;99380.94;4455082;32;20379;-90
2022/01/10 09:47:09;;;;;;;;;;;;;;;5.94;59.51;99372.31;4441277;32;19997;-91
2022/01/10 09:49:34;;;;;;;;;;;;;;;5.99;59.51;99374.78;4442690;32;19985;-91
2022/01/10 09:51:59;;;;;;;;;;;;;;;6.02;59.52;99370.41;4442527;32;20016;-91
2022/01/10 09:54:24;;;;;;;;;;;;;;;5.96;59.51;99372.28;4455387;32;20255;-91
2022/01/10 09:56:50;;;;;;;;;;;;;;;5.89;59.51;99379.25;4454865;32;20663;-90
2022/01/10 09:59:16;;;;;;;;;;;;;;;5.83;59.51;99377.63;4442716;32;20003;-89
2022/01/10 10:01:42;;;;;;;;;;;;;;;6.02;59.51;99378.16;4441966;32;20579;-90
2022/01/10 10:04:07;;;;;;;;;;;;;;;6.01;59.51;99379.06;4442082;32;19997;-90
2022/01/10 10:06:33;;;;;;;;;;;;;;;5.93;59.51;99380.09;4454963;32;20004;-90
2022/01/10 10:09:06;;;;;;;;;;;;;;;5.99;59.52;99379.97;4442237;32;19988;-90
2022/01/10 10:11:35;;;;;;;;;;;;;;;6.08;59.52;99378.03;4441978;32;19984;-90
2022/01/10 10:14:02;;;;;;;;;;;;;;;6.07;59.52;99378.91;4455120;32;20020;-90
2022/01/10 10:16:29;;;;;;;;;;;;;;;6.21;59.53;99378.66;4454846;32;20355;-89
2022/01/10 10:18:54;;;;;;;;;;;;;;;6.10;59.52;99371.09;4454752;32;19977;-90
2022/01/10 10:21:20;;;;;;;;;;;;;;;6.35;59.54;99374.03;4441317;32;22656;-90
2022/01/10 10:23:46;;;;;;;;;;;;;;;6.32;59.53;99370.66;4454165;32;20075;-89
2022/01/10 10:26:16;;;;;;;;;;;;;;;6.26;59.52;99374.25;4441028;32;19993;-90
2022/01/10 10:28:42;;;;;;;;;;;;;;;6.47;59.54;99378.13;4441355;32;20645;-88
2022/01/10 10:31:07;;;;;;;;;;;;;;;6.48;59.54;99372.06;4453571;32;19980;-88
2022/01/10 10:33:32;;;;;;;;;;;;;;;6.47;59.54;99368.63;4441340;32;20001;-88
2022/01/10 10:36:07;;;;;;;;;;;;;;;6.60;59.55;99365.75;4441134;32;20026;-88
2022/01/10 10:38:33;;;;;;;;;;;;;;;6.66;59.56;99363.91;4441765;32;20037;-88
2022/01/10 10:41:01;;;;;;;;;;;;;;;6.55;59.54;99372.78;4440663;32;20004;-89
2022/01/10 10:43:33;;;;;;;;;;;;;;;6.66;59.55;99368.22;4439912;32;19993;-88
2022/01/10 10:45:59;;;;;;;;;;;;;;;6.51;59.55;99368.56;4440328;32;19997;-90
2022/01/10 10:48:24;;;;;;;;;;;;;;;6.75;59.55;99370.59;4453246;32;20011;-89
2022/01/10 10:50:50;;;;;;;;;;;;;;;6.74;59.56;99374.06;4453123;32;20012;-87
2022/01/10 10:53:15;;;;;;;;;;;;;;;6.82;59.56;99373.88;4439407;32;29152;-87
2022/01/10 10:55:41;;;;;;;;;;;;;;;6.86;59.56;99366.03;4440265;32;20007;-88
2022/01/10 10:58:09;;;;;;;;;;;;;;;6.94;59.57;99366.72;4453210;32;19976;-89
2022/01/10 11:00:34;;;;;;;;;;;;;;;6.67;59.55;99365.59;4454909;32;19993;-88
2022/01/10 11:03:00;;;;;;;;;;;;;;;6.64;59.54;99378.59;4454986;32;20390;-87
2022/01/10 11:05:25;;;;;;;;;;;;;;;6.73;59.56;99372.38;4441695;32;20102;-88
2022/01/10 11:07:51;;;;;;;;;;;;;;;6.78;59.56;99380.88;4441865;32;20495;-87
2022/01/10 11:10:16;;;;;;;;;;;;;;;6.91;59.56;99377.13;4454949;32;20378;-89
2022/01/10 11:12:41;;;;;;;;;;;;;;;6.80;59.55;99388.59;4441889;32;20109;-88
2022/01/10 11:15:07;;;;;;;;;;;;;;;6.70;59.55;99383.63;4441909;32;19997;-88
2022/01/10 11:17:32;;;;;;;;;;;;;;;6.79;59.56;99387.75;4441654;32;20290;-87
2022/01/10 11:20:25;;;;;;;;;;;;;;;6.81;59.56;99383.37;4454753;32;19996;-87
2022/01/10 11:22:51;;;;;;;;;;;;;;;6.94;59.57;99392.59;4451948;32;20077;-88
2022/01/10 11:25:43;;;;;;;;;;;;;;;6.80;59.56;99393.78;4454600;32;20426;-87
2022/01/10 11:28:12;;;;;;;;;;;;;;;6.72;59.56;99399.97;4465824;32;19976;-87
2022/01/10 11:30:42;;;;;;;;;;;;;;;6.90;59.57;99390.97;4455038;32;19973;-90
2022/01/10 11:33:15;;;;;;;;;;;;;;;6.86;59.56;99394.50;4441762;32;20019;-87
2022/01/10 11:35:40;;;;;;;;;;;;;;;6.77;59.56;99399.87;4441679;32;20011;-88
2022/01/10 11:38:19;;;;;;;;;;;;;;;7.01;59.56;99395.88;4454449;32;19992;-88
2022/01/10 11:40:45;;;;;;;;;;;;;;;7.13;59.58;99389.56;4455169;32;19994;-88
2022/01/10 11:43:25;;;;;;;;;;;;;;;7.27;59.59;99398.69;4442233;32;20049;-90
2022/01/10 11:45:52;;;;;;;;;;;;;;;7.07;59.57;99404.34;4454614;32;19989;-89
2022/01/10 11:48:17;;;;;;;;;;;;;;;7.21;59.58;99401.44;4441474;32;20385;-87
2022/01/10 11:50:43;;;;;;;;;;;;;;;7.24;59.58;99397.91;4454491;32;19984;-88
2022/01/10 11:53:09;;;;;;;;;;;;;;;7.49;59.60;99396.44;4441272;32;19988;-88
2022/01/10 11:55:44;;;;;;;;;;;;;;;7.42;59.59;99409.56;4454493;32;19996;-89
2022/01/10 11:58:16;;;;;;;;;;;;;;;7.35;59.59;99398.53;4441562;32;19989;-88
2022/01/10 12:00:42;;;;;;;;;;;;;;;7.33;59.59;99403.75;4454655;32;19991;-91
2022/01/10 12:03:07;;;;;;;;;;;;;;;7.34;59.59;99404.59;4441695;32;20005;-88
2022/01/10 12:05:32;;;;;;;;;;;;;;;7.56;59.60;99400.56;4454647;32;20007;-89
2022/01/10 12:07:58;;;;;;;;;;;;;;;7.49;59.60;99405.94;4441527;32;20005;-88
2022/01/10 12:10:23;;;;;;;;;;;;;;;7.26;59.59;99415.13;4454207;32;20300;-88
2022/01/10 12:12:53;;;;;;;;;;;;;;;7.18;59.58;99421.37;4469119;32;19988;-89
2022/01/10 12:15:18;;;;;;;;;;;;;;;7.18;59.58;99417.03;4468741;32;19984;-90
2022/01/10 12:17:43;;;;;;;;;;;;;;;7.41;59.60;99413.06;4454184;32;20364;-89
2022/01/10 12:20:09;;;;;;;;;;;;;;;7.40;59.60;99422.56;4454584;32;20231;-89
2022/01/10 12:22:34;;;;;;;;;;;;;;;7.39;59.59;99410.50;4441842;32;20027;-90
2022/01/10 12:25:01;;;;;;;;;;;;;;;7.26;59.58;99415.13;4454681;32;20000;-90
2022/01/10 12:27:26;;;;;;;;;;;;;;;7.38;59.59;99421.75;4454817;32;20044;-91
2022/01/10 12:29:51;;;;;;;;;;;;;;;7.49;59.60;99421.47;4441192;32;21387;-90
2022/01/10 12:32:16;;;;;;;;;;;;;;;7.41;59.59;99418.22;4442489;32;20285;-91
2022/01/10 12:34:44;;;;;;;;;;;;;;;7.45;59.60;99422.44;4455305;32;20041;-91
2022/01/10 12:37:09;;;;;;;;;;;;;;;7.22;59.58;99425.59;4455715;32;20897;-89
2022/01/10 12:39:38;;;;;;;;;;;;;;;7.32;59.58;99429.63;4455342;32;19965;-89
2022/01/10 12:42:03;;;;;;;;;;;;;;;7.28;59.58;99439.22;4442336;32;20021;-90
2022/01/10 12:44:28;;;;;;;;;;;;;;;7.29;59.58;99433.16;4442294;32;20258;-90
2022/01/10 12:46:54;;;;;;;;;;;;;;;7.45;59.60;99432.81;4442823;32;19993;-90
2022/01/10 12:49:19;;;;;;;;;;;;;;;7.38;59.59;99439.88;4455827;32;19964;-89
2022/01/10 12:51:45;;;;;;;;;;;;;;;7.28;59.58;99447.00;4456124;32;19989;-91
2022/01/10 12:54:14;;;;;;;;;;;;;;;7.37;59.59;99449.38;4455898;32;19976;-90
2022/01/10 12:56:39;;;;;;;;;;;;;;;7.42;59.60;99458.78;4442880;32;19981;-90
2022/01/10 12:59:05;;;;;;;;;;;;;;;7.30;59.58;99458.16;4442746;32;20473;-89